Aviation Digital Data Service (ADDS)

Output produced by METARs form (0912 UTC 23 July 2019)
found at http://www.aviationweather.gov/metar/data/
 
KSAV 230853Z AUTO 21006KT 10SM CLR 25/24 A2993 RMK AO2 SLP135 T02500239 55010
KSAV 230522Z 2306/2406 21006KT P6SM FEW025 BKN250 
     FM231800 21010G16KT P6SM SCT040 
     FM232200 19009KT 6SM SHRA VCTS SCT025 BKN035CB 
     FM240200 34007KT 5SM SHRA VCTS SCT008CB OVC015
       
KSVN 230856Z AUTO 23004KT 10SM CLR 25/23 A2991 RMK AO2 SLP131 T02520232 56010 $
TAF KSVN 230400Z 2304/2410 19006KT 9999 FEW040 QNH2994INS 
     BECMG 2319/2320 16009KT 9000 -SHRA BKN040 QNH2990INS 
     TEMPO 2322/2402 VRB15G25KT 8000 -TSRA BKN030CB 
     BECMG 2404/2405 35009KT 9999 NSW BKN040 QNH2989INS TX33/2319Z TN25/2311Z
       
KLHW 230856Z AUTO 00000KT 10SM CLR 23/22 A2991 RMK AO2 SLP131 T02340223 56010 $
KTBR 230855Z AUTO 00000KT 10SM CLR 23/21 A2992 RMK AO2 T02280210
KVDI 230855Z AUTO 00000KT 10SM CLR 23/21 A2993 RMK AO2
KJYL 230855Z AUTO 00000KT 24/22 A2993 RMK AO2 T02370221 PWINO
KDBN 230855Z AUTO 00000KT 10SM CLR 23/22 A2993 RMK AO2
KJES 230900Z AUTO 00000KT 10SM CLR 23/21 A2994 RMK AO2
KSSI 230853Z AUTO 19004KT 10SM CLR 27/23 A2993 RMK AO2 SLP138 T02670233 56008 TSNO
KSSI 230520Z 2306/2406 18006KT P6SM FEW015 SCT250 
     FM230800 23004KT P6SM SCT250 
     FM231800 17009KT P6SM VCTS BKN040CB BKN250 
     FM240300 27006KT P6SM VCSH SCT025 BKN050 OVC100
       
KBQK 230855Z AUTO 00000KT 10SM CLR 24/23 A2993 RMK AO2 T02380231
KAYS 230855Z AUTO 00000KT 10SM CLR 24/21 A2994 RMK AO2 T02350206 TSNO
KNBC 230856Z AUTO 20006KT 10SM CLR 27/24 A2992 RMK AO2 SLP133 T02670244 56010
TAF KNBC 2303/2403 18006KT 9999 SKC QNH2990INS 
     BECMG 2308/2310 20008KT 9999 SCT040CB BKN070 OVC100 QNH2992INS 
     TEMPO 2310/2314 19014G20KT 6000 TSRA BR BKN030CB OVC060 
     BECMG 2318/2320 21010KT 9999 NSW SCT050 BKN080 QNH2994INS T23/2308Z
T34/2318Z
       
KHXD 230855Z AUTO 22006KT 10SM CLR 27/24 A2993 RMK AO2